Have a Safe July 4th! 

Flight Track Log - Related Links

Times and Time Zones

All times are in EST time to prevent confusion due to time zone crossing. See the N319EE flight status page for this flight to view local times or setup timezone preferences in your user account.

Time Position Orientation Groundspeed Altitude Reporting Facility
EST Latitude Longitude Course Direction KTS MPH feet Rate Location/Type
Mon 09:45:14 AM 43.6028 -70.4594 231° Southwest 150 173 6,800  Level Boston Center
Mon 09:46:14 AM 43.5775 -70.5031 231° Southwest 147 169 9,300 1,587 Climbing Boston Center
Mon 09:47:15 AM 43.5517 -70.5461 230° Southwest 153 176 10,000 344 Climbing Boston Center
Mon 09:48:00 AM 43.4364 -70.6003 230° Southwest  Level Estimated
Mon 09:48:16 AM 43.5122 -70.6097 229° Southwest 206 237 10,000  Level Boston Center
Mon 09:49:00 AM 43.4016 -70.6667 234° Southwest  Level FlightAware Approximate
Mon 09:49:16 AM 43.4747 -70.6719 230° Southwest 211 243 10,000  Level Boston Center
Mon 09:50:00 AM 43.3595 -70.7246 231° Southwest  Level Estimated
Mon 09:50:17 AM 43.4356 -70.7353 230° Southwest 219 252 9,900  Level Boston Center
Mon 09:51:18 AM 43.3956 -70.7989 229° Southwest 219 252 9,900  Level Boston Center
Mon 09:52:20 AM 43.3558 -70.8639 230° Southwest 220 253 9,900  Level Boston Center
Mon 09:53:21 AM 43.3131 -70.9319 229° Southwest 218 251 9,900  Level Boston Center
Mon 09:54:22 AM 43.2750 -70.9925 229° Southwest 212 244 9,900  Level Boston Center
Mon 09:55:23 AM 43.2372 -71.0544 230° Southwest 212 244 9,900  Level Boston Center
Mon 09:56:23 AM 43.1975 -71.1178 229° Southwest 216 249 9,900  Level Boston Center
Mon 09:57:24 AM 43.1586 -71.1794 229° Southwest 215 247 9,900  Level Boston Center
Mon 09:58:25 AM 43.1175 -71.2447 229° Southwest 213 245 9,900  Level Boston Center
Mon 09:59:26 AM 43.0789 -71.3061 229° Southwest 214 246 9,900 50 Level Boston Center
Mon 10:00:25 AM 43.0333 -71.3667 224° Southwest 214 246 10,000 49 Climbing KA90
Mon 10:01:28 AM 43.0000 -71.4333 236° Southwest 213 245 10,000  Level KA90
Mon 10:02:27 AM 42.9628 -71.4906 228° Southwest 207 238 10,000  Level Boston Center
Mon 10:03:31 AM 42.9256 -71.5494 229° Southwest 205 236 10,000  Level Boston Center
Mon 10:04:31 AM 42.8869 -71.6094 229° Southwest 210 242 10,000  Level Boston Center
Mon 10:05:32 AM 42.8478 -71.6728 230° Southwest 219 252 10,000  Level Boston Center
Mon 10:06:32 AM 42.8058 -71.7381 229° Southwest 215 247 10,000  Level Boston Center
Mon 10:07:33 AM 42.7669 -71.7989 229° Southwest 214 246 10,000  Level Boston Center
Mon 10:08:33 AM 42.7250 -71.8581 226° Southwest 217 250 10,000 67 Level Boston Center
Mon 10:09:03 AM 42.6950 -71.8761 204° Southwest 236 272 10,100  Climbing Boston Center
Mon 10:09:36 AM 42.6656 -71.8908 200° South 227 261 10,000  Descending Boston Center
Mon 10:09:58 AM 42.6417 -71.9072 207° Southwest 228 262 10,100 98 Climbing Boston Center
Mon 10:10:37 AM 42.6067 -71.9244 200° South 229 264 10,100  Level Boston Center
Mon 10:10:58 AM 42.5839 -71.9394 206° Southwest 228 262 10,100 -98 Level Boston Center
Mon 10:11:38 AM 42.5456 -71.9617 203° Southwest 224 258 10,000 -98 Descending Boston Center
Mon 10:11:59 AM 42.5211 -71.9756 203° Southwest 227 261 10,000  Level Boston Center
Mon 10:12:39 AM 42.4872 -71.9967 205° Southwest 229 264 10,000  Level Boston Center
Mon 10:13:01 AM 42.4647 -72.0111 205° Southwest 229 264 10,000  Level Boston Center
Mon 10:13:40 AM 42.4281 -72.0311 202° Southwest 230 265 10,000  Level Boston Center
Mon 10:14:01 AM 42.4058 -72.0486 210° Southwest 230 265 10,000  Level Boston Center
Mon 10:14:40 AM 42.3714 -72.0675 202° Southwest 227 261 10,000  Level Boston Center
Mon 10:15:01 AM 42.3475 -72.0833 206° Southwest 230 265 10,000  Level Boston Center
Mon 10:15:40 AM 42.3117 -72.1028 202° Southwest 234 269 10,000  Level Boston Center
Mon 10:16:02 AM 42.2897 -72.1153 203° Southwest 227 261 10,000  Level Boston Center
Mon 10:16:41 AM 42.2492 -72.1397 204° Southwest 229 264 10,000  Level Boston Center
Mon 10:17:08 AM 42.2236 -72.1558 205° Southwest 225 259 10,000  Level Boston Center
Mon 10:17:42 AM 42.1917 -72.1736 202° Southwest 226 260 10,000  Level Boston Center
Mon 10:18:15 AM 42.1606 -72.1914 203° Southwest 226 260 10,000  Level Boston Center
Mon 10:18:45 AM 42.1347 -72.2089 207° Southwest 224 258 10,000  Level Boston Center
Mon 10:19:15 AM 42.1042 -72.2267 203° Southwest 226 260 10,000  Level Boston Center
Mon 10:19:45 AM 42.0772 -72.2431 204° Southwest 224 258 10,000  Level Boston Center
Mon 10:20:13 AM 42.0503 -72.2597 205° Southwest 224 258 10,000  Level Boston Center
Mon 10:20:45 AM 42.0194 -72.2769 203° Southwest 227 261 10,000  Level Boston Center
Mon 10:21:12 AM 41.9919 -72.2942 205° Southwest 228 262 10,000  Level Boston Center
Mon 10:21:46 AM 41.9617 -72.3117 203° Southwest 227 261 10,000  Level Boston Center
Mon 10:22:07 AM 41.9386 -72.3244 202° Southwest 228 262 10,000  Level Boston Center
Mon 10:22:49 AM 41.8992 -72.3492 205° Southwest 226 260 10,000  Level Boston Center
Mon 10:23:07 AM 41.8819 -72.3592 203° Southwest 225 259 10,000  Level Boston Center
Mon 10:23:50 AM 41.8431 -72.3828 204° Southwest 221 254 10,000  Level Boston Center
Mon 10:24:08 AM 41.8256 -72.3942 206° Southwest 221 254 10,000 -492 Level Boston Center
Mon 10:24:51 AM 41.7856 -72.4164 203° Southwest 226 260 9,500 -764 Descending Boston Center
Mon 10:25:03 AM 41.7697 -72.4261 205° Southwest 237 273 9,300 -800 Descending Boston Center
Mon 10:25:51 AM 41.7228 -72.4544 204° Southwest 246 283 8,700 -806 Descending Boston Center
Mon 10:26:10 AM 41.6989 -72.4672 202° Southwest 253 291 8,400 -590 Descending Boston Center
Mon 10:26:52 AM 41.6569 -72.4928 204° Southwest 257 296 8,100 -231 Descending Boston Center
Mon 10:27:54 AM 41.5933 -72.5300 204° Southwest 248 285 8,000 -49 Descending Boston Center
Mon 10:28:54 AM 41.5483 -72.5953 227° Southwest 226 260 8,000  Level Boston Center
Mon 10:29:56 AM 41.5211 -72.6681 243° Southwest 220 253 8,000  Level Boston Center
Mon 10:30:56 AM 41.4928 -72.7408 243° Southwest 221 254 8,000  Level Boston Center
Mon 10:31:57 AM 41.4667 -72.8117 244° Southwest 215 247 8,000  Level Boston Center
Mon 10:32:57 AM 41.4403 -72.8814 243° Southwest 212 244 8,000  Level Boston Center
Mon 10:33:58 AM 41.4133 -72.9522 243° Southwest 214 246 8,000 -145 Level Boston Center
Mon 10:35:01 AM 41.3850 -73.0292 244° Southwest 216 249 7,700 -1,220 Descending Boston Center
Mon 10:36:01 AM 41.3500 -73.1000 237° Southwest 219 252 5,500 -1,850 Descending New York TRACON
Mon 10:37:01 AM 41.3333 -73.1833 255° West 218 251 4,000 -750 Descending New York TRACON
Mon 10:38:01 AM 41.3000 -73.2500 236° Southwest 224 258 4,000  Level New York TRACON
Mon 10:39:01 AM 41.2667 -73.3167 236° Southwest 219 252 4,000  Level New York TRACON
Mon 10:40:01 AM 41.2500 -73.4000 255° West 221 254 4,000 -50 Level New York TRACON
Mon 10:41:01 AM 41.2167 -73.4667 236° Southwest 223 257 3,900 -400 Descending New York TRACON
Mon 10:42:01 AM 41.1500 -73.4833 191° South 247 284 3,200 -450 Descending New York TRACON
Mon 10:43:01 AM 41.0833 -73.5000 191° South 236 272 3,000 -300 Descending New York TRACON
Mon 10:44:01 AM 41.0167 -73.5167 191° South 234 269 2,600 -550 Descending New York TRACON
Mon 10:45:01 AM 40.9833 -73.5833 236° Southwest 198 228 1,900 -350 Descending New York TRACON
Mon 10:46:01 AM 40.9833 -73.6333 270° West 168 193 1,900 -300 Level New York TRACON
Mon 10:47:01 AM 41.0167 -73.6667 323° Northwest 133 153 1,300 -600 Descending New York TRACON
Mon 10:48:01 AM 41.0500 -73.7000 323° Northwest 115 132 700 -600 Descending New York TRACON

Login

Don't have an account? Register now (free) for customized features, flight alerts, and more!